sensor_id;sensor_type;location;lat;lon;timestamp;P1;durP1;ratioP1;P2;durP2;ratioP2
24617;SDS011;12762;51.730;5.356;2023-03-01T00:01:18;8.63;;;4.87;;
24617;SDS011;12762;51.730;5.356;2023-03-01T00:03:53;7.00;;;4.47;;
24617;SDS011;12762;51.730;5.356;2023-03-01T00:06:20;8.40;;;5.07;;
24617;SDS011;12762;51.730;5.356;2023-03-01T00:08:48;9.77;;;4.57;;
24617;SDS011;12762;51.730;5.356;2023-03-01T00:11:17;7.80;;;4.60;;
24617;SDS011;12762;51.730;5.356;2023-03-01T00:13:55;8.33;;;4.57;;
24617;SDS011;12762;51.730;5.356;2023-03-01T00:16:25;8.17;;;4.67;;
24617;SDS011;12762;51.730;5.356;2023-03-01T00:18:55;7.57;;;4.83;;
24617;SDS011;12762;51.730;5.356;2023-03-01T00:21:23;6.90;;;4.67;;
24617;SDS011;12762;51.730;5.356;2023-03-01T00:23:51;11.83;;;5.27;;
24617;SDS011;12762;51.730;5.356;2023-03-01T00:26:19;8.53;;;4.60;;
24617;SDS011;12762;51.730;5.356;2023-03-01T00:28:47;8.73;;;4.73;;
24617;SDS011;12762;51.730;5.356;2023-03-01T00:31:15;8.47;;;4.53;;
24617;SDS011;12762;51.730;5.356;2023-03-01T00:33:44;10.47;;;4.67;;
24617;SDS011;12762;51.730;5.356;2023-03-01T00:36:15;9.17;;;4.50;;
24617;SDS011;12762;51.730;5.356;2023-03-01T00:38:43;10.70;;;5.30;;
24617;SDS011;12762;51.730;5.356;2023-03-01T00:41:13;8.00;;;4.67;;
24617;SDS011;12762;51.730;5.356;2023-03-01T00:43:42;10.23;;;5.40;;
24617;SDS011;12762;51.730;5.356;2023-03-01T00:46:11;10.30;;;4.90;;
24617;SDS011;12762;51.730;5.356;2023-03-01T00:48:41;10.77;;;5.43;;
24617;SDS011;12762;51.730;5.356;2023-03-01T00:51:17;8.10;;;4.97;;
24617;SDS011;12762;51.730;5.356;2023-03-01T00:53:53;10.13;;;4.80;;
24617;SDS011;12762;51.730;5.356;2023-03-01T00:56:23;8.77;;;4.97;;
24617;SDS011;12762;51.730;5.356;2023-03-01T00:58:50;9.33;;;5.47;;
24617;SDS011;12762;51.730;5.356;2023-03-01T01:01:27;11.90;;;4.87;;
24617;SDS011;12762;51.730;5.356;2023-03-01T01:03:57;8.63;;;4.57;;
24617;SDS011;12762;51.730;5.356;2023-03-01T01:06:29;8.20;;;4.87;;
24617;SDS011;12762;51.730;5.356;2023-03-01T01:08:59;8.93;;;4.87;;
24617;SDS011;12762;51.730;5.356;2023-03-01T01:11:29;8.47;;;5.03;;
24617;SDS011;12762;51.730;5.356;2023-03-01T01:13:57;9.07;;;5.13;;
24617;SDS011;12762;51.730;5.356;2023-03-01T01:16:25;8.47;;;5.30;;
24617;SDS011;12762;51.730;5.356;2023-03-01T01:18:54;8.90;;;5.30;;
24617;SDS011;12762;51.730;5.356;2023-03-01T01:21:22;10.70;;;5.60;;
24617;SDS011;12762;51.730;5.356;2023-03-01T01:23:50;8.57;;;5.23;;
24617;SDS011;12762;51.730;5.356;2023-03-01T01:26:19;13.53;;;5.67;;
24617;SDS011;12762;51.730;5.356;2023-03-01T01:28:48;12.73;;;5.57;;
24617;SDS011;12762;51.730;5.356;2023-03-01T01:31:15;7.77;;;5.20;;
24617;SDS011;12762;51.730;5.356;2023-03-01T01:33:43;10.77;;;5.37;;
24617;SDS011;12762;51.730;5.356;2023-03-01T01:36:12;9.97;;;5.57;;
24617;SDS011;12762;51.730;5.356;2023-03-01T01:38:39;8.23;;;5.27;;
24617;SDS011;12762;51.730;5.356;2023-03-01T01:41:06;9.03;;;5.43;;
24617;SDS011;12762;51.730;5.356;2023-03-01T01:48:54;10.70;;;5.77;;
24617;SDS011;12762;51.730;5.356;2023-03-01T01:51:45;7.57;;;4.60;;
24617;SDS011;12762;51.730;5.356;2023-03-01T01:54:16;7.57;;;4.50;;
24617;SDS011;12762;51.730;5.356;2023-03-01T01:56:51;9.80;;;5.30;;
24617;SDS011;12762;51.730;5.356;2023-03-01T01:59:22;10.03;;;4.97;;
24617;SDS011;12762;51.730;5.356;2023-03-01T02:01:54;10.23;;;5.20;;
24617;SDS011;12762;51.730;5.356;2023-03-01T02:04:23;9.60;;;5.17;;
24617;SDS011;12762;51.730;5.356;2023-03-01T02:06:54;8.60;;;5.10;;
24617;SDS011;12762;51.730;5.356;2023-03-01T02:09:44;10.20;;;4.83;;
24617;SDS011;12762;51.730;5.356;2023-03-01T02:12:14;14.13;;;5.57;;
24617;SDS011;12762;51.730;5.356;2023-03-01T02:14:47;12.10;;;6.13;;
24617;SDS011;12762;51.730;5.356;2023-03-01T02:17:15;11.33;;;5.23;;
24617;SDS011;12762;51.730;5.356;2023-03-01T02:22:47;9.00;;;5.00;;
24617;SDS011;12762;51.730;5.356;2023-03-01T02:30:32;9.23;;;4.50;;
24617;SDS011;12762;51.730;5.356;2023-03-01T02:33:00;10.90;;;5.20;;
24617;SDS011;12762;51.730;5.356;2023-03-01T02:35:30;9.73;;;4.87;;
24617;SDS011;12762;51.730;5.356;2023-03-01T02:38:00;11.57;;;5.37;;
24617;SDS011;12762;51.730;5.356;2023-03-01T02:40:28;10.77;;;5.03;;
24617;SDS011;12762;51.730;5.356;2023-03-01T02:42:57;9.07;;;5.47;;
24617;SDS011;12762;51.730;5.356;2023-03-01T02:45:25;8.87;;;4.60;;
24617;SDS011;12762;51.730;5.356;2023-03-01T02:47:53;12.27;;;5.20;;
24617;SDS011;12762;51.730;5.356;2023-03-01T02:53:05;9.60;;;5.30;;
24617;SDS011;12762;51.730;5.356;2023-03-01T02:55:38;10.53;;;5.27;;
24617;SDS011;12762;51.730;5.356;2023-03-01T02:58:06;11.50;;;5.60;;
24617;SDS011;12762;51.730;5.356;2023-03-01T03:00:37;11.57;;;5.43;;
24617;SDS011;12762;51.730;5.356;2023-03-01T03:03:07;10.27;;;5.40;;
24617;SDS011;12762;51.730;5.356;2023-03-01T03:05:34;8.07;;;5.00;;
24617;SDS011;12762;51.730;5.356;2023-03-01T03:08:03;8.93;;;5.03;;
24617;SDS011;12762;51.730;5.356;2023-03-01T03:10:34;8.23;;;4.57;;
24617;SDS011;12762;51.730;5.356;2023-03-01T03:13:04;11.53;;;5.13;;
24617;SDS011;12762;51.730;5.356;2023-03-01T03:15:36;9.47;;;5.30;;
24617;SDS011;12762;51.730;5.356;2023-03-01T03:18:05;11.23;;;5.40;;
24617;SDS011;12762;51.730;5.356;2023-03-01T03:20:34;8.57;;;4.90;;
24617;SDS011;12762;51.730;5.356;2023-03-01T03:23:02;10.53;;;4.77;;
24617;SDS011;12762;51.730;5.356;2023-03-01T03:25:29;11.83;;;4.90;;
24617;SDS011;12762;51.730;5.356;2023-03-01T03:27:56;8.43;;;4.77;;
24617;SDS011;12762;51.730;5.356;2023-03-01T03:30:25;8.67;;;4.80;;
24617;SDS011;12762;51.730;5.356;2023-03-01T03:32:56;9.27;;;5.07;;
24617;SDS011;12762;51.730;5.356;2023-03-01T03:35:31;9.80;;;5.10;;
24617;SDS011;12762;51.730;5.356;2023-03-01T03:38:00;9.47;;;5.27;;
24617;SDS011;12762;51.730;5.356;2023-03-01T03:40:35;8.83;;;4.73;;
24617;SDS011;12762;51.730;5.356;2023-03-01T03:43:05;10.30;;;4.87;;
24617;SDS011;12762;51.730;5.356;2023-03-01T03:45:34;10.97;;;5.00;;
24617;SDS011;12762;51.730;5.356;2023-03-01T03:48:03;8.63;;;4.23;;
24617;SDS011;12762;51.730;5.356;2023-03-01T03:50:31;10.20;;;4.87;;
24617;SDS011;12762;51.730;5.356;2023-03-01T03:53:02;8.20;;;4.47;;
24617;SDS011;12762;51.730;5.356;2023-03-01T03:55:31;9.37;;;4.73;;
24617;SDS011;12762;51.730;5.356;2023-03-01T03:58:00;8.87;;;4.63;;
24617;SDS011;12762;51.730;5.356;2023-03-01T04:00:36;8.37;;;4.43;;
24617;SDS011;12762;51.730;5.356;2023-03-01T04:03:05;8.00;;;4.47;;
24617;SDS011;12762;51.730;5.356;2023-03-01T04:05:32;9.30;;;4.37;;
24617;SDS011;12762;51.730;5.356;2023-03-01T04:08:03;8.53;;;4.73;;
24617;SDS011;12762;51.730;5.356;2023-03-01T04:10:34;8.57;;;4.70;;
24617;SDS011;12762;51.730;5.356;2023-03-01T04:13:12;7.53;;;3.90;;
24617;SDS011;12762;51.730;5.356;2023-03-01T04:15:43;13.03;;;4.30;;
24617;SDS011;12762;51.730;5.356;2023-03-01T04:18:13;8.63;;;4.77;;
24617;SDS011;12762;51.730;5.356;2023-03-01T04:20:42;8.43;;;4.77;;
24617;SDS011;12762;51.730;5.356;2023-03-01T04:23:10;9.80;;;4.73;;
24617;SDS011;12762;51.730;5.356;2023-03-01T04:25:53;11.03;;;5.30;;
24617;SDS011;12762;51.730;5.356;2023-03-01T04:28:25;8.23;;;4.80;;
24617;SDS011;12762;51.730;5.356;2023-03-01T04:30:53;6.77;;;4.20;;
24617;SDS011;12762;51.730;5.356;2023-03-01T04:33:21;10.00;;;4.60;;
24617;SDS011;12762;51.730;5.356;2023-03-01T04:35:49;7.07;;;4.33;;
24617;SDS011;12762;51.730;5.356;2023-03-01T04:38:17;10.03;;;5.17;;
24617;SDS011;12762;51.730;5.356;2023-03-01T04:40:45;6.23;;;4.17;;
24617;SDS011;12762;51.730;5.356;2023-03-01T04:43:12;11.57;;;5.23;;
24617;SDS011;12762;51.730;5.356;2023-03-01T04:45:47;10.30;;;4.70;;
24617;SDS011;12762;51.730;5.356;2023-03-01T04:48:14;10.77;;;4.80;;
24617;SDS011;12762;51.730;5.356;2023-03-01T04:50:40;10.50;;;4.90;;
24617;SDS011;12762;51.730;5.356;2023-03-01T04:53:07;8.80;;;4.00;;
24617;SDS011;12762;51.730;5.356;2023-03-01T04:55:34;8.37;;;4.43;;
24617;SDS011;12762;51.730;5.356;2023-03-01T04:58:01;10.90;;;5.17;;
24617;SDS011;12762;51.730;5.356;2023-03-01T05:00:30;8.13;;;4.67;;
24617;SDS011;12762;51.730;5.356;2023-03-01T05:03:00;8.30;;;4.70;;
24617;SDS011;12762;51.730;5.356;2023-03-01T05:05:34;9.50;;;4.40;;
24617;SDS011;12762;51.730;5.356;2023-03-01T05:08:04;7.77;;;4.20;;
24617;SDS011;12762;51.730;5.356;2023-03-01T05:10:34;8.40;;;4.23;;
24617;SDS011;12762;51.730;5.356;2023-03-01T05:13:03;9.40;;;4.40;;
24617;SDS011;12762;51.730;5.356;2023-03-01T05:15:32;8.30;;;4.57;;
24617;SDS011;12762;51.730;5.356;2023-03-01T05:17:59;12.53;;;4.80;;
24617;SDS011;12762;51.730;5.356;2023-03-01T05:20:27;9.20;;;4.40;;
24617;SDS011;12762;51.730;5.356;2023-03-01T05:22:58;8.77;;;4.37;;
24617;SDS011;12762;51.730;5.356;2023-03-01T05:25:26;9.27;;;4.23;;
24617;SDS011;12762;51.730;5.356;2023-03-01T05:27:53;8.90;;;3.97;;
24617;SDS011;12762;51.730;5.356;2023-03-01T05:30:20;9.53;;;5.00;;
24617;SDS011;12762;51.730;5.356;2023-03-01T05:32:50;8.93;;;4.40;;
24617;SDS011;12762;51.730;5.356;2023-03-01T05:35:22;10.57;;;4.30;;
24617;SDS011;12762;51.730;5.356;2023-03-01T05:37:49;8.60;;;4.33;;
24617;SDS011;12762;51.730;5.356;2023-03-01T05:40:18;8.73;;;5.00;;
24617;SDS011;12762;51.730;5.356;2023-03-01T05:42:50;10.13;;;4.57;;
24617;SDS011;12762;51.730;5.356;2023-03-01T05:45:23;8.13;;;4.07;;
24617;SDS011;12762;51.730;5.356;2023-03-01T05:47:51;11.03;;;4.83;;
24617;SDS011;12762;51.730;5.356;2023-03-01T05:50:20;9.33;;;4.80;;
24617;SDS011;12762;51.730;5.356;2023-03-01T05:52:50;8.10;;;4.17;;
24617;SDS011;12762;51.730;5.356;2023-03-01T05:55:19;13.40;;;4.40;;
24617;SDS011;12762;51.730;5.356;2023-03-01T05:57:49;8.23;;;4.57;;
24617;SDS011;12762;51.730;5.356;2023-03-01T06:00:17;8.80;;;4.90;;
24617;SDS011;12762;51.730;5.356;2023-03-01T06:02:46;7.77;;;4.30;;
24617;SDS011;12762;51.730;5.356;2023-03-01T06:05:13;10.63;;;4.97;;
24617;SDS011;12762;51.730;5.356;2023-03-01T06:07:41;10.07;;;4.57;;
24617;SDS011;12762;51.730;5.356;2023-03-01T06:10:12;7.20;;;4.17;;
24617;SDS011;12762;51.730;5.356;2023-03-01T06:12:40;10.87;;;5.10;;
24617;SDS011;12762;51.730;5.356;2023-03-01T06:15:08;7.00;;;4.17;;
24617;SDS011;12762;51.730;5.356;2023-03-01T06:17:38;8.30;;;3.90;;
24617;SDS011;12762;51.730;5.356;2023-03-01T06:20:28;11.90;;;4.70;;
24617;SDS011;12762;51.730;5.356;2023-03-01T06:22:54;8.23;;;4.10;;
24617;SDS011;12762;51.730;5.356;2023-03-01T06:25:22;14.13;;;4.53;;
24617;SDS011;12762;51.730;5.356;2023-03-01T06:27:50;9.63;;;4.47;;
24617;SDS011;12762;51.730;5.356;2023-03-01T06:30:19;10.33;;;4.67;;
24617;SDS011;12762;51.730;5.356;2023-03-01T06:32:48;8.30;;;5.20;;
24617;SDS011;12762;51.730;5.356;2023-03-01T06:35:15;9.97;;;4.40;;
24617;SDS011;12762;51.730;5.356;2023-03-01T06:37:44;11.13;;;5.03;;
24617;SDS011;12762;51.730;5.356;2023-03-01T06:40:13;7.33;;;4.33;;
24617;SDS011;12762;51.730;5.356;2023-03-01T06:42:41;11.73;;;4.83;;
24617;SDS011;12762;51.730;5.356;2023-03-01T06:45:09;9.33;;;5.27;;
24617;SDS011;12762;51.730;5.356;2023-03-01T06:47:36;9.27;;;4.87;;
24617;SDS011;12762;51.730;5.356;2023-03-01T06:50:05;9.93;;;5.20;;
24617;SDS011;12762;51.730;5.356;2023-03-01T06:52:33;12.40;;;4.67;;
24617;SDS011;12762;51.730;5.356;2023-03-01T06:55:00;9.67;;;4.87;;
24617;SDS011;12762;51.730;5.356;2023-03-01T06:57:27;8.67;;;4.87;;
24617;SDS011;12762;51.730;5.356;2023-03-01T06:59:54;10.73;;;5.03;;
24617;SDS011;12762;51.730;5.356;2023-03-01T07:02:21;10.17;;;5.60;;
24617;SDS011;12762;51.730;5.356;2023-03-01T07:04:49;13.87;;;5.47;;
24617;SDS011;12762;51.730;5.356;2023-03-01T07:07:17;10.23;;;4.77;;
24617;SDS011;12762;51.730;5.356;2023-03-01T07:09:45;9.30;;;4.93;;
24617;SDS011;12762;51.730;5.356;2023-03-01T07:12:15;10.43;;;5.43;;
24617;SDS011;12762;51.730;5.356;2023-03-01T07:14:43;8.80;;;4.63;;
24617;SDS011;12762;51.730;5.356;2023-03-01T07:17:10;9.83;;;5.13;;
24617;SDS011;12762;51.730;5.356;2023-03-01T07:19:37;8.87;;;4.87;;
24617;SDS011;12762;51.730;5.356;2023-03-01T07:22:05;14.30;;;5.63;;
24617;SDS011;12762;51.730;5.356;2023-03-01T07:24:33;9.93;;;5.30;;
24617;SDS011;12762;51.730;5.356;2023-03-01T07:27:00;14.73;;;5.77;;
24617;SDS011;12762;51.730;5.356;2023-03-01T07:29:27;10.63;;;5.90;;
24617;SDS011;12762;51.730;5.356;2023-03-01T07:31:55;10.37;;;5.70;;
24617;SDS011;12762;51.730;5.356;2023-03-01T07:34:22;9.17;;;5.20;;
24617;SDS011;12762;51.730;5.356;2023-03-01T07:36:48;10.60;;;5.20;;
24617;SDS011;12762;51.730;5.356;2023-03-01T07:39:15;12.17;;;5.03;;
24617;SDS011;12762;51.730;5.356;2023-03-01T07:41:44;8.33;;;5.00;;
24617;SDS011;12762;51.730;5.356;2023-03-01T07:44:11;10.07;;;5.50;;
24617;SDS011;12762;51.730;5.356;2023-03-01T07:46:38;10.93;;;5.10;;
24617;SDS011;12762;51.730;5.356;2023-03-01T07:49:05;13.43;;;5.57;;
24617;SDS011;12762;51.730;5.356;2023-03-01T07:51:32;9.43;;;5.07;;
24617;SDS011;12762;51.730;5.356;2023-03-01T07:53:59;9.80;;;5.60;;
24617;SDS011;12762;51.730;5.356;2023-03-01T07:56:26;15.03;;;6.03;;
24617;SDS011;12762;51.730;5.356;2023-03-01T07:58:52;10.57;;;5.40;;
24617;SDS011;12762;51.730;5.356;2023-03-01T08:01:20;11.07;;;5.17;;
24617;SDS011;12762;51.730;5.356;2023-03-01T08:03:50;11.63;;;5.67;;
24617;SDS011;12762;51.730;5.356;2023-03-01T08:06:17;9.97;;;5.63;;
24617;SDS011;12762;51.730;5.356;2023-03-01T08:08:50;11.73;;;6.07;;
24617;SDS011;12762;51.730;5.356;2023-03-01T08:11:17;10.63;;;5.47;;
24617;SDS011;12762;51.730;5.356;2023-03-01T08:13:46;9.60;;;5.20;;
24617;SDS011;12762;51.730;5.356;2023-03-01T08:16:18;12.83;;;5.73;;
24617;SDS011;12762;51.730;5.356;2023-03-01T08:18:45;9.80;;;5.63;;
24617;SDS011;12762;51.730;5.356;2023-03-01T08:21:13;12.27;;;5.53;;
24617;SDS011;12762;51.730;5.356;2023-03-01T08:23:41;10.13;;;5.87;;
24617;SDS011;12762;51.730;5.356;2023-03-01T08:26:13;13.47;;;6.47;;
24617;SDS011;12762;51.730;5.356;2023-03-01T08:28:42;11.07;;;6.90;;
24617;SDS011;12762;51.730;5.356;2023-03-01T08:31:16;11.27;;;6.80;;
24617;SDS011;12762;51.730;5.356;2023-03-01T08:33:45;11.67;;;6.60;;
24617;SDS011;12762;51.730;5.356;2023-03-01T08:36:21;16.10;;;7.00;;
24617;SDS011;12762;51.730;5.356;2023-03-01T08:38:50;11.10;;;6.37;;
24617;SDS011;12762;51.730;5.356;2023-03-01T08:41:17;10.17;;;5.67;;
24617;SDS011;12762;51.730;5.356;2023-03-01T08:43:44;9.20;;;6.20;;
24617;SDS011;12762;51.730;5.356;2023-03-01T08:46:12;10.67;;;5.67;;
24617;SDS011;12762;51.730;5.356;2023-03-01T08:48:39;12.37;;;6.07;;
24617;SDS011;12762;51.730;5.356;2023-03-01T08:51:09;9.73;;;5.70;;
24617;SDS011;12762;51.730;5.356;2023-03-01T08:53:41;10.00;;;5.47;;
24617;SDS011;12762;51.730;5.356;2023-03-01T08:56:08;8.37;;;5.60;;
24617;SDS011;12762;51.730;5.356;2023-03-01T08:58:36;10.33;;;5.47;;
24617;SDS011;12762;51.730;5.356;2023-03-01T09:01:07;8.87;;;5.30;;
24617;SDS011;12762;51.730;5.356;2023-03-01T09:03:37;8.17;;;5.13;;
24617;SDS011;12762;51.730;5.356;2023-03-01T09:06:05;10.97;;;5.87;;
24617;SDS011;12762;51.730;5.356;2023-03-01T09:08:34;9.50;;;5.83;;
24617;SDS011;12762;51.730;5.356;2023-03-01T09:11:05;9.37;;;5.57;;
24617;SDS011;12762;51.730;5.356;2023-03-01T09:13:34;11.17;;;5.57;;
24617;SDS011;12762;51.730;5.356;2023-03-01T09:16:02;12.10;;;5.60;;
24617;SDS011;12762;51.730;5.356;2023-03-01T09:18:31;9.67;;;5.43;;
24617;SDS011;12762;51.730;5.356;2023-03-01T09:23:34;10.53;;;5.33;;
24617;SDS011;12762;51.730;5.356;2023-03-01T09:26:05;11.03;;;5.57;;
24617;SDS011;12762;51.730;5.356;2023-03-01T09:28:33;8.37;;;5.03;;
24617;SDS011;12762;51.730;5.356;2023-03-01T09:31:00;10.70;;;5.03;;
24617;SDS011;12762;51.730;5.356;2023-03-01T09:33:29;9.27;;;5.30;;
24617;SDS011;12762;51.730;5.356;2023-03-01T09:36:07;9.10;;;4.60;;
24617;SDS011;12762;51.730;5.356;2023-03-01T09:38:37;8.03;;;4.47;;
24617;SDS011;12762;51.730;5.356;2023-03-01T09:41:09;7.20;;;4.83;;
24617;SDS011;12762;51.730;5.356;2023-03-01T09:43:47;8.17;;;5.03;;
24617;SDS011;12762;51.730;5.356;2023-03-01T09:46:37;8.80;;;5.17;;
24617;SDS011;12762;51.730;5.356;2023-03-01T09:49:10;8.63;;;4.80;;
24617;SDS011;12762;51.730;5.356;2023-03-01T09:52:20;11.97;;;5.30;;
24617;SDS011;12762;51.730;5.356;2023-03-01T09:54:57;8.47;;;4.70;;
24617;SDS011;12762;51.730;5.356;2023-03-01T09:57:28;8.90;;;4.87;;
24617;SDS011;12762;51.730;5.356;2023-03-01T10:05:21;7.60;;;4.67;;
24617;SDS011;12762;51.730;5.356;2023-03-01T10:11:22;8.33;;;4.70;;
24617;SDS011;12762;51.730;5.356;2023-03-01T10:14:01;9.23;;;5.17;;
24617;SDS011;12762;51.730;5.356;2023-03-01T10:16:52;10.87;;;4.83;;
24617;SDS011;12762;51.730;5.356;2023-03-01T10:19:27;7.30;;;4.37;;
24617;SDS011;12762;51.730;5.356;2023-03-01T10:22:04;8.57;;;4.43;;
24617;SDS011;12762;51.730;5.356;2023-03-01T10:24:47;13.83;;;4.37;;
24617;SDS011;12762;51.730;5.356;2023-03-01T10:29:52;7.50;;;4.67;;
24617;SDS011;12762;51.730;5.356;2023-03-01T10:32:25;5.87;;;4.23;;
24617;SDS011;12762;51.730;5.356;2023-03-01T10:34:52;10.00;;;4.10;;
24617;SDS011;12762;51.730;5.356;2023-03-01T10:37:20;7.47;;;5.00;;
24617;SDS011;12762;51.730;5.356;2023-03-01T10:39:55;8.27;;;4.57;;
24617;SDS011;12762;51.730;5.356;2023-03-01T10:42:47;6.90;;;4.37;;
24617;SDS011;12762;51.730;5.356;2023-03-01T10:48:15;6.67;;;4.47;;
24617;SDS011;12762;51.730;5.356;2023-03-01T10:50:43;9.10;;;4.70;;
24617;SDS011;12762;51.730;5.356;2023-03-01T10:53:34;10.03;;;4.27;;
24617;SDS011;12762;51.730;5.356;2023-03-01T10:56:04;7.87;;;4.57;;
24617;SDS011;12762;51.730;5.356;2023-03-01T10:58:58;6.03;;;4.07;;
24617;SDS011;12762;51.730;5.356;2023-03-01T11:01:30;6.63;;;4.20;;
24617;SDS011;12762;51.730;5.356;2023-03-01T11:06:31;8.97;;;4.33;;
24617;SDS011;12762;51.730;5.356;2023-03-01T11:09:15;8.83;;;5.13;;
24617;SDS011;12762;51.730;5.356;2023-03-01T11:11:57;10.57;;;4.70;;
24617;SDS011;12762;51.730;5.356;2023-03-01T11:14:31;7.70;;;4.60;;
24617;SDS011;12762;51.730;5.356;2023-03-01T11:17:05;8.47;;;5.13;;
24617;SDS011;12762;51.730;5.356;2023-03-01T11:19:43;8.43;;;4.60;;
24617;SDS011;12762;51.730;5.356;2023-03-01T11:22:33;8.23;;;4.47;;
24617;SDS011;12762;51.730;5.356;2023-03-01T11:25:01;6.20;;;4.40;;
24617;SDS011;12762;51.730;5.356;2023-03-01T11:27:40;7.47;;;4.13;;
24617;SDS011;12762;51.730;5.356;2023-03-01T11:30:27;8.87;;;4.93;;
24617;SDS011;12762;51.730;5.356;2023-03-01T11:35:34;8.27;;;4.50;;
24617;SDS011;12762;51.730;5.356;2023-03-01T11:38:24;7.57;;;4.43;;
24617;SDS011;12762;51.730;5.356;2023-03-01T11:54:29;7.27;;;4.43;;
24617;SDS011;12762;51.730;5.356;2023-03-01T11:57:07;7.97;;;4.40;;
24617;SDS011;12762;51.730;5.356;2023-03-01T11:59:48;9.00;;;4.47;;
24617;SDS011;12762;51.730;5.356;2023-03-01T12:02:27;8.73;;;5.00;;
24617;SDS011;12762;51.730;5.356;2023-03-01T12:08:10;8.47;;;4.57;;
24617;SDS011;12762;51.730;5.356;2023-03-01T12:22:50;8.97;;;4.70;;
24617;SDS011;12762;51.730;5.356;2023-03-01T12:25:41;8.87;;;5.37;;
24617;SDS011;12762;51.730;5.356;2023-03-01T12:28:29;9.30;;;4.23;;
24617;SDS011;12762;51.730;5.356;2023-03-01T12:31:16;9.00;;;4.83;;
24617;SDS011;12762;51.730;5.356;2023-03-01T12:36:59;7.13;;;4.80;;
24617;SDS011;12762;51.730;5.356;2023-03-01T12:48:47;9.17;;;4.50;;
24617;SDS011;12762;51.730;5.356;2023-03-01T12:51:26;8.17;;;4.30;;
24617;SDS011;12762;51.730;5.356;2023-03-01T12:53:57;8.87;;;4.93;;
24617;SDS011;12762;51.730;5.356;2023-03-01T12:56:27;6.77;;;4.23;;
24617;SDS011;12762;51.730;5.356;2023-03-01T12:58:59;9.30;;;4.17;;
24617;SDS011;12762;51.730;5.356;2023-03-01T13:01:36;12.13;;;4.23;;
24617;SDS011;12762;51.730;5.356;2023-03-01T13:11:57;8.77;;;4.30;;
24617;SDS011;12762;51.730;5.356;2023-03-01T13:16:51;8.20;;;4.40;;
24617;SDS011;12762;51.730;5.356;2023-03-01T13:19:20;8.67;;;4.73;;
24617;SDS011;12762;51.730;5.356;2023-03-01T13:21:52;7.03;;;4.40;;
24617;SDS011;12762;51.730;5.356;2023-03-01T13:24:27;7.33;;;4.43;;
24617;SDS011;12762;51.730;5.356;2023-03-01T13:29:56;7.67;;;3.80;;
24617;SDS011;12762;51.730;5.356;2023-03-01T13:32:30;7.13;;;4.10;;
24617;SDS011;12762;51.730;5.356;2023-03-01T13:37:46;8.67;;;3.87;;
24617;SDS011;12762;51.730;5.356;2023-03-01T13:42:45;7.17;;;3.87;;
24617;SDS011;12762;51.730;5.356;2023-03-01T13:48:18;7.67;;;4.33;;
24617;SDS011;12762;51.730;5.356;2023-03-01T13:51:03;7.17;;;4.27;;
24617;SDS011;12762;51.730;5.356;2023-03-01T13:53:34;6.77;;;4.30;;
24617;SDS011;12762;51.730;5.356;2023-03-01T13:56:11;6.73;;;4.13;;
24617;SDS011;12762;51.730;5.356;2023-03-01T13:58:53;7.50;;;4.30;;
24617;SDS011;12762;51.730;5.356;2023-03-01T14:01:30;7.17;;;4.00;;
24617;SDS011;12762;51.730;5.356;2023-03-01T14:04:02;6.30;;;3.97;;
24617;SDS011;12762;51.730;5.356;2023-03-01T14:06:33;8.10;;;5.17;;
24617;SDS011;12762;51.730;5.356;2023-03-01T14:12:03;6.33;;;4.20;;
24617;SDS011;12762;51.730;5.356;2023-03-01T14:14:38;5.33;;;3.97;;
24617;SDS011;12762;51.730;5.356;2023-03-01T14:19:55;8.33;;;4.37;;
24617;SDS011;12762;51.730;5.356;2023-03-01T14:22:25;9.00;;;4.27;;
24617;SDS011;12762;51.730;5.356;2023-03-01T14:24:59;6.47;;;4.23;;
24617;SDS011;12762;51.730;5.356;2023-03-01T14:27:32;7.33;;;3.90;;
24617;SDS011;12762;51.730;5.356;2023-03-01T14:30:15;6.77;;;4.03;;
24617;SDS011;12762;51.730;5.356;2023-03-01T14:32:55;6.90;;;4.40;;
24617;SDS011;12762;51.730;5.356;2023-03-01T14:35:28;5.67;;;3.80;;
24617;SDS011;12762;51.730;5.356;2023-03-01T14:38:00;9.00;;;4.07;;
24617;SDS011;12762;51.730;5.356;2023-03-01T14:40:28;7.87;;;3.80;;
24617;SDS011;12762;51.730;5.356;2023-03-01T14:43:01;7.60;;;4.20;;
24617;SDS011;12762;51.730;5.356;2023-03-01T14:45:36;8.73;;;3.97;;
24617;SDS011;12762;51.730;5.356;2023-03-01T14:48:04;6.57;;;3.70;;
24617;SDS011;12762;51.730;5.356;2023-03-01T14:50:34;7.10;;;3.90;;
24617;SDS011;12762;51.730;5.356;2023-03-01T14:53:03;7.03;;;3.97;;
24617;SDS011;12762;51.730;5.356;2023-03-01T14:55:37;6.40;;;3.70;;
24617;SDS011;12762;51.730;5.356;2023-03-01T14:58:12;7.20;;;3.70;;
24617;SDS011;12762;51.730;5.356;2023-03-01T15:00:47;7.53;;;4.90;;
24617;SDS011;12762;51.730;5.356;2023-03-01T15:03:24;7.10;;;3.57;;
24617;SDS011;12762;51.730;5.356;2023-03-01T15:05:56;6.70;;;3.57;;
24617;SDS011;12762;51.730;5.356;2023-03-01T15:08:26;6.93;;;3.60;;
24617;SDS011;12762;51.730;5.356;2023-03-01T15:11:04;6.63;;;4.00;;
24617;SDS011;12762;51.730;5.356;2023-03-01T15:13:43;6.87;;;3.93;;
24617;SDS011;12762;51.730;5.356;2023-03-01T15:16:13;5.73;;;4.03;;
24617;SDS011;12762;51.730;5.356;2023-03-01T15:18:54;6.10;;;3.93;;
24617;SDS011;12762;51.730;5.356;2023-03-01T15:21:27;7.67;;;3.93;;
24617;SDS011;12762;51.730;5.356;2023-03-01T15:26:52;6.80;;;3.83;;
24617;SDS011;12762;51.730;5.356;2023-03-01T15:29:25;8.60;;;4.33;;
24617;SDS011;12762;51.730;5.356;2023-03-01T15:32:00;7.73;;;4.30;;
24617;SDS011;12762;51.730;5.356;2023-03-01T15:34:47;6.83;;;3.83;;
24617;SDS011;12762;51.730;5.356;2023-03-01T15:40:21;5.97;;;3.90;;
24617;SDS011;12762;51.730;5.356;2023-03-01T15:43:01;8.63;;;4.00;;
24617;SDS011;12762;51.730;5.356;2023-03-01T15:45:30;9.03;;;4.30;;
24617;SDS011;12762;51.730;5.356;2023-03-01T15:48:00;8.60;;;3.93;;
24617;SDS011;12762;51.730;5.356;2023-03-01T15:50:55;6.87;;;4.20;;
24617;SDS011;12762;51.730;5.356;2023-03-01T15:53:24;7.43;;;4.37;;
24617;SDS011;12762;51.730;5.356;2023-03-01T15:55:53;6.40;;;3.70;;
24617;SDS011;12762;51.730;5.356;2023-03-01T15:58:23;6.10;;;3.70;;
24617;SDS011;12762;51.730;5.356;2023-03-01T16:00:53;6.80;;;3.90;;
24617;SDS011;12762;51.730;5.356;2023-03-01T16:03:27;8.43;;;4.13;;
24617;SDS011;12762;51.730;5.356;2023-03-01T16:05:54;7.57;;;4.40;;
24617;SDS011;12762;51.730;5.356;2023-03-01T16:08:21;6.43;;;4.47;;
24617;SDS011;12762;51.730;5.356;2023-03-01T16:10:48;7.00;;;3.90;;
24617;SDS011;12762;51.730;5.356;2023-03-01T16:13:17;7.37;;;3.87;;
24617;SDS011;12762;51.730;5.356;2023-03-01T16:15:45;8.83;;;4.37;;
24617;SDS011;12762;51.730;5.356;2023-03-01T16:18:15;6.73;;;4.03;;
24617;SDS011;12762;51.730;5.356;2023-03-01T16:20:42;7.00;;;3.90;;
24617;SDS011;12762;51.730;5.356;2023-03-01T16:23:10;6.53;;;4.17;;
24617;SDS011;12762;51.730;5.356;2023-03-01T16:25:37;7.93;;;3.77;;
24617;SDS011;12762;51.730;5.356;2023-03-01T16:28:04;8.53;;;4.20;;
24617;SDS011;12762;51.730;5.356;2023-03-01T16:30:36;8.00;;;4.50;;
24617;SDS011;12762;51.730;5.356;2023-03-01T16:33:04;7.47;;;4.23;;
24617;SDS011;12762;51.730;5.356;2023-03-01T16:35:55;6.50;;;4.00;;
24617;SDS011;12762;51.730;5.356;2023-03-01T16:38:22;8.33;;;4.10;;
24617;SDS011;12762;51.730;5.356;2023-03-01T16:40:50;7.60;;;4.63;;
24617;SDS011;12762;51.730;5.356;2023-03-01T16:43:17;7.40;;;4.30;;
24617;SDS011;12762;51.730;5.356;2023-03-01T16:45:44;6.17;;;3.50;;
24617;SDS011;12762;51.730;5.356;2023-03-01T16:48:21;6.43;;;4.17;;
24617;SDS011;12762;51.730;5.356;2023-03-01T16:50:58;8.77;;;4.30;;
24617;SDS011;12762;51.730;5.356;2023-03-01T16:53:28;7.97;;;4.47;;
24617;SDS011;12762;51.730;5.356;2023-03-01T16:55:56;7.43;;;4.60;;
24617;SDS011;12762;51.730;5.356;2023-03-01T16:58:24;8.20;;;4.67;;
24617;SDS011;12762;51.730;5.356;2023-03-01T17:00:52;6.77;;;4.33;;